Time;durP1;ratioP1;P1;durP2;ratioP2;P2;SDS_P1;SDS_P2;PMS_P1;PMS_P2;Temp;Humidity;BMP_temperature;BMP_pressure;BME280_temperature;BME280_humidity;BME280_pressure;Samples;Min_cycle;Max_cycle;Signal;HPM_P1;HPM_P2
2023/08/25 00:00:31;;;;;;;;;8.75;8.00;;;;;26.95;54.63;100446.97;4938582;28;46397;-40
2023/08/25 00:02:56;;;;;;;;;8.25;8.25;;;;;26.93;54.43;100437.47;4938783;28;45655;-44
2023/08/25 00:05:21;;;;;;;;;9.25;7.00;;;;;26.93;54.68;100434.78;4939090;28;45400;-40
2023/08/25 00:07:47;;;;;;;;;8.00;8.00;;;;;26.92;54.12;100430.47;4938959;28;45615;-40
2023/08/25 00:10:13;;;;;;;;;8.75;8.75;;;;;26.93;54.65;100429.47;4938507;28;46573;-40
2023/08/25 00:12:38;;;;;;;;;7.00;6.25;;;;;26.92;54.46;100430.47;4938478;28;45231;-42
2023/08/25 00:15:04;;;;;;;;;11.00;9.25;;;;;26.91;54.85;100423.44;4938631;28;45524;-44
2023/08/25 00:17:30;;;;;;;;;9.50;9.00;;;;;26.91;54.59;100423.44;4938833;28;45244;-42
2023/08/25 00:19:56;;;;;;;;;9.50;9.25;;;;;26.92;54.59;100425.13;4937207;28;48639;-40
2023/08/25 00:22:21;;;;;;;;;8.00;8.00;;;;;26.94;54.72;100423.19;4938679;28;45300;-38
2023/08/25 00:24:47;;;;;;;;;11.00;8.00;;;;;26.92;54.65;100419.81;4938611;28;45214;-40
2023/08/25 00:27:12;;;;;;;;;8.00;8.00;;;;;26.91;54.91;100410.16;4938243;28;46508;-39
2023/08/25 00:29:37;;;;;;;;;10.25;8.00;;;;;26.89;54.85;100414.75;4937706;28;55551;-38
2023/08/25 00:32:03;;;;;;;;;9.25;9.00;;;;;26.86;54.98;100410.56;4937958;28;52197;-38
2023/08/25 00:34:28;;;;;;;;;9.00;8.75;;;;;26.83;55.33;100408.19;4938039;28;45411;-36
2023/08/25 00:36:53;;;;;;;;;9.75;9.75;;;;;26.80;55.57;100400.47;4938392;28;48883;-39
2023/08/25 00:39:18;;;;;;;;;12.75;8.00;;;;;26.78;55.32;100399.78;4937506;28;63920;-36
2023/08/25 00:41:44;;;;;;;;;9.00;8.75;;;;;26.73;55.48;100391.34;4938118;28;45339;-40
2023/08/25 00:44:09;;;;;;;;;8.25;7.25;;;;;26.75;55.73;100397.38;4937887;28;49783;-39
2023/08/25 00:46:34;;;;;;;;;10.75;8.50;;;;;26.73;55.78;100394.00;4938370;28;45615;-39
2023/08/25 00:49:00;;;;;;;;;10.50;9.00;;;;;26.72;55.57;100389.66;4938096;28;46312;-36
2023/08/25 00:51:26;;;;;;;;;8.00;7.25;;;;;26.71;55.68;100391.47;4938099;28;45540;-39
2023/08/25 00:53:53;;;;;;;;;9.00;8.25;;;;;26.70;55.65;100389.81;4938458;28;45402;-38
2023/08/25 00:56:18;;;;;;;;;8.75;8.50;;;;;26.70;55.78;100385.31;4937941;28;45567;-37
2023/08/25 00:58:44;;;;;;;;;10.00;8.75;;;;;26.71;56.21;100391.47;4937792;28;46257;-37
2023/08/25 01:01:11;;;;;;;;;8.00;8.00;;;;;26.72;55.98;100387.00;4937964;28;45228;-39
2023/08/25 01:03:39;;;;;;;;;9.00;7.75;;;;;26.74;55.94;100383.22;4938169;28;45175;-40
2023/08/25 01:06:05;;;;;;;;;9.50;8.75;;;;;26.76;55.82;100389.25;4938198;28;45396;-40
2023/08/25 01:08:32;;;;;;;;;8.00;8.00;;;;;26.76;55.67;100399.88;4937841;28;46312;-39
2023/08/25 01:11:32;;;;;;;;;9.25;9.25;;;;;26.76;55.90;100396.38;4937878;28;45329;-37
2023/08/25 01:14:20;;;;;;;;;10.00;9.00;;;;;26.77;55.79;100400.72;4938028;28;45607;-39
2023/08/25 01:17:04;;;;;;;;;12.25;8.50;;;;;26.78;55.64;100405.94;4952888;28;45491;-39
2023/08/25 01:19:51;;;;;;;;;7.50;7.50;;;;;26.78;55.89;100397.97;4937831;28;46226;-39
2023/08/25 01:22:21;;;;;;;;;12.00;9.00;;;;;26.79;55.88;100404.97;4937442;28;45352;-40
2023/08/25 01:24:50;;;;;;;;;11.25;10.00;;;;;26.80;56.26;100400.47;4937774;28;45307;-42
2023/08/25 01:27:15;;;;;;;;;9.75;8.25;;;;;26.81;55.64;100396.84;4937800;28;45439;-39
2023/08/25 01:29:43;;;;;;;;;9.00;8.50;;;;;26.83;55.95;100400.19;4937625;28;46487;-40
2023/08/25 01:32:08;;;;;;;;;10.75;10.75;;;;;26.83;55.44;100395.75;4937567;28;45305;-40
2023/08/25 01:34:34;;;;;;;;;9.25;9.25;;;;;26.84;55.81;100389.41;4937575;28;45223;-42
2023/08/25 01:37:10;;;;;;;;;11.00;10.00;;;;;26.85;55.87;100385.78;4937839;28;45621;-38
2023/08/25 01:39:40;;;;;;;;;8.50;8.00;;;;;26.87;55.83;100390.13;4937311;28;47533;-41
2023/08/25 01:42:07;;;;;;;;;9.00;8.50;;;;;26.82;55.92;100387.88;4937447;28;45320;-39
2023/08/25 01:44:34;;;;;;;;;9.50;9.50;;;;;26.81;55.99;100394.19;4937504;28;45320;-37
2023/08/25 01:47:06;;;;;;;;;7.75;7.25;;;;;26.80;56.41;100392.50;4939861;28;45432;-40
2023/08/25 01:49:32;;;;;;;;;10.25;9.00;;;;;26.79;55.97;100383.69;4940081;28;45357;-41
2023/08/25 01:51:59;;;;;;;;;10.25;7.25;;;;;26.78;56.19;100376.69;4939751;28;45699;-40
2023/08/25 01:54:25;;;;;;;;;10.75;8.25;;;;;26.77;56.58;100390.09;4941127;28;45501;-39
2023/08/25 01:56:50;;;;;;;;;10.00;8.00;;;;;26.76;56.14;100378.59;4940785;28;45615;-40
2023/08/25 01:59:16;;;;;;;;;7.50;7.25;;;;;26.77;56.19;100385.59;4940529;28;46622;-36
2023/08/25 02:01:41;;;;;;;;;10.00;10.00;;;;;26.76;56.15;100380.44;4940524;28;45341;-39
2023/08/25 02:04:07;;;;;;;;;11.25;10.75;;;;;26.79;56.18;100378.38;4940260;28;49264;-38
2023/08/25 02:06:32;;;;;;;;;8.50;8.50;;;;;26.78;56.10;100366.06;4939541;28;45334;-38
2023/08/25 02:08:57;;;;;;;;;12.00;9.50;;;;;26.80;56.03;100369.41;4939270;28;46956;-37
2023/08/25 02:11:23;;;;;;;;;9.00;8.00;;;;;26.81;56.12;100363.13;4940494;28;45335;-37
2023/08/25 02:13:48;;;;;;;;;9.25;8.75;;;;;26.82;55.72;100362.16;4940425;28;45386;-39
2023/08/25 02:16:13;;;;;;;;;7.75;7.75;;;;;26.84;55.73;100364.66;4940472;28;45505;-38
2023/08/25 02:18:39;;;;;;;;;11.25;8.25;;;;;26.82;56.11;100367.47;4940202;28;45402;-37
2023/08/25 02:21:04;;;;;;;;;12.25;10.00;;;;;26.82;56.28;100354.19;4940284;28;45416;-36
2023/08/25 02:23:29;;;;;;;;;10.75;10.50;;;;;26.83;55.88;100355.84;4939965;28;60494;-38
2023/08/25 02:25:55;;;;;;;;;11.00;8.25;;;;;26.83;56.10;100352.34;4940434;28;45664;-42
2023/08/25 02:28:20;;;;;;;;;13.00;9.50;;;;;26.84;55.98;100338.91;4940095;28;46524;-37
2023/08/25 02:30:45;;;;;;;;;10.25;10.25;;;;;26.84;56.25;100328.25;4939838;28;50247;-40
2023/08/25 02:33:12;;;;;;;;;10.75;9.50;;;;;26.87;56.01;100316.53;4939919;28;46563;-37
2023/08/25 02:35:37;;;;;;;;;11.00;8.00;;;;;26.87;56.32;100310.34;4940332;28;45509;-41
2023/08/25 02:38:09;;;;;;;;;11.00;9.50;;;;;26.87;55.93;100295.25;4939369;28;64596;-36
2023/08/25 02:40:35;;;;;;;;;8.25;7.25;;;;;26.87;56.08;100283.78;4940169;28;45691;-38
2023/08/25 02:43:04;;;;;;;;;9.75;9.75;;;;;26.89;56.16;100281.81;4940359;28;45314;-41
2023/08/25 02:45:30;;;;;;;;;10.25;9.75;;;;;26.89;56.08;100289.78;4940402;28;45243;-39
2023/08/25 02:47:55;;;;;;;;;8.50;8.00;;;;;26.88;55.98;100281.00;4939828;28;46534;-39
2023/08/25 02:50:21;;;;;;;;;9.25;9.25;;;;;26.89;55.92;100288.00;4939792;28;45256;-39
2023/08/25 02:52:47;;;;;;;;;8.75;8.00;;;;;26.91;56.03;100287.84;4954823;28;45263;-41
2023/08/25 02:55:16;;;;;;;;;9.00;8.50;;;;;26.91;56.09;100290.50;4940080;28;45409;-38
2023/08/25 02:57:42;;;;;;;;;8.00;7.75;;;;;26.90;55.99;100294.13;4954043;28;47221;-39
2023/08/25 03:00:09;;;;;;;;;11.75;11.75;;;;;26.91;55.60;100299.31;4939718;28;45401;-42
2023/08/25 03:02:34;;;;;;;;;11.25;9.75;;;;;26.92;55.83;100300.16;4939821;28;45244;-37
2023/08/25 03:05:00;;;;;;;;;12.75;10.75;;;;;26.90;55.98;100305.59;4940228;28;45311;-38
2023/08/25 03:07:25;;;;;;;;;6.75;6.75;;;;;26.90;56.36;100315.41;4939638;28;46260;-39
2023/08/25 03:09:50;;;;;;;;;15.00;14.50;;;;;26.89;56.17;100321.69;4939667;28;45216;-37
2023/08/25 03:12:16;;;;;;;;;15.00;13.00;;;;;26.87;56.15;100336.94;4939375;28;47338;-37
2023/08/25 03:14:41;;;;;;;;;12.00;10.25;;;;;26.87;56.47;100342.25;4939699;28;45250;-37
2023/08/25 03:17:06;;;;;;;;;13.00;12.00;;;;;26.87;56.82;100347.59;4938514;28;67219;-41
2023/08/25 03:19:32;;;;;;;;;15.75;13.25;;;;;26.87;56.49;100352.91;4938397;28;45339;-39
2023/08/25 03:21:57;;;;;;;;;15.00;13.25;;;;;26.84;56.79;100365.50;4939558;28;45285;-43
2023/08/25 03:24:22;;;;;;;;;13.00;13.00;;;;;26.85;56.72;100372.50;4939291;28;45549;-38
2023/08/25 03:26:48;;;;;;;;;13.25;12.00;;;;;26.84;56.28;100376.13;4939077;28;46320;-45
2023/08/25 03:29:13;;;;;;;;;14.50;13.50;;;;;26.84;56.39;100392.06;4939256;28;45383;-42
2023/08/25 03:31:38;;;;;;;;;17.25;11.25;;;;;26.84;56.36;100397.41;4938751;28;55055;-40
2023/08/25 03:34:03;;;;;;;;;13.00;12.25;;;;;26.81;56.73;100402.16;4939179;28;49702;-40
2023/08/25 03:36:30;;;;;;;;;15.00;14.50;;;;;26.83;56.79;100417.00;4938980;28;46467;-38
2023/08/25 03:38:55;;;;;;;;;15.00;14.00;;;;;26.83;56.70;100416.16;4939019;28;45420;-37
2023/08/25 03:41:21;;;;;;;;;15.00;14.00;;;;;26.81;56.68;100392.38;4939079;28;46081;-37
2023/08/25 03:43:46;;;;;;;;;15.25;13.25;;;;;26.83;56.75;100394.88;4939188;28;45660;-39
2023/08/25 03:46:11;;;;;;;;;14.75;13.25;;;;;26.82;56.65;100393.19;4939052;28;45399;-39
2023/08/25 03:48:37;;;;;;;;;13.75;13.75;;;;;26.82;56.81;100388.75;4938968;28;45461;-36
2023/08/25 03:51:02;;;;;;;;;13.00;13.00;;;;;26.84;56.71;100386.75;4939398;28;45341;-38
2023/08/25 03:53:27;;;;;;;;;16.50;15.50;;;;;26.84;56.43;100386.75;4939158;28;45333;-39
2023/08/25 03:55:53;;;;;;;;;13.25;13.25;;;;;26.84;56.93;100385.94;4938378;28;46429;-39
2023/08/25 03:58:18;;;;;;;;;13.50;13.50;;;;;26.82;56.59;100380.75;4938765;28;45351;-41
2023/08/25 04:00:51;;;;;;;;;15.75;15.75;;;;;26.81;56.97;100357.81;4938857;28;45266;-40
2023/08/25 04:03:16;;;;;;;;;13.00;12.00;;;;;26.80;56.63;100364.09;4939121;28;45390;-38
2023/08/25 04:05:43;;;;;;;;;17.00;14.50;;;;;26.79;56.74;100357.09;4938060;28;61226;-38
2023/08/25 04:08:09;;;;;;;;;12.75;11.00;;;;;26.78;56.64;100347.44;4938487;28;45656;-36
2023/08/25 04:10:34;;;;;;;;;10.00;10.00;;;;;26.74;56.64;100338.03;4938279;28;46420;-39
2023/08/25 04:12:59;;;;;;;;;10.00;10.00;;;;;26.72;56.52;100334.69;4938518;28;45239;-41
2023/08/25 04:15:24;;;;;;;;;10.75;10.00;;;;;26.70;56.56;100336.63;4938447;28;46473;-36
2023/08/25 04:17:50;;;;;;;;;9.00;9.00;;;;;26.68;56.78;100339.41;4938346;28;48578;-38
2023/08/25 04:20:15;;;;;;;;;9.00;9.00;;;;;26.68;56.53;100331.44;4938644;28;45334;-38
2023/08/25 04:22:43;;;;;;;;;11.00;10.25;;;;;26.70;56.31;100329.47;4938668;28;45592;-37
2023/08/25 04:25:09;;;;;;;;;10.50;10.50;;;;;26.71;56.45;100325.03;4938487;28;46177;-38
2023/08/25 04:27:35;;;;;;;;;11.75;9.75;;;;;26.71;56.55;100333.00;4937527;28;45832;-38
2023/08/25 04:30:00;;;;;;;;;12.50;11.50;;;;;26.72;56.57;100328.50;4937160;28;45290;-40
2023/08/25 04:32:26;;;;;;;;;9.25;7.75;;;;;26.72;56.54;100315.22;4938116;28;50614;-39
2023/08/25 04:34:51;;;;;;;;;13.00;12.25;;;;;26.73;56.54;100315.09;4938169;28;46188;-36
2023/08/25 04:37:17;;;;;;;;;9.75;8.75;;;;;26.74;56.51;100303.47;4937943;28;54019;-38
2023/08/25 04:39:42;;;;;;;;;14.75;11.00;;;;;26.72;56.34;100313.41;4938278;28;45254;-38
2023/08/25 04:42:07;;;;;;;;;15.25;12.75;;;;;26.71;56.26;100311.72;4938553;28;45250;-38
2023/08/25 04:44:33;;;;;;;;;12.00;12.00;;;;;26.72;56.53;100308.09;4937880;28;53377;-39
2023/08/25 04:46:58;;;;;;;;;14.25;14.00;;;;;26.73;56.73;100315.09;4937676;28;55492;-39
2023/08/25 04:49:23;;;;;;;;;17.00;14.25;;;;;26.74;56.75;100297.31;4938195;28;45282;-36
2023/08/25 04:51:49;;;;;;;;;15.50;15.50;;;;;26.76;56.57;100300.69;4937877;28;45775;-40
2023/08/25 04:54:14;;;;;;;;;19.50;19.25;;;;;26.77;56.97;100303.19;4937727;28;47051;-38
2023/08/25 04:56:39;;;;;;;;;50.00;41.00;;;;;26.77;56.96;100303.19;4937821;28;51198;-37
2023/08/25 04:59:05;;;;;;;;;58.75;46.25;;;;;26.78;57.00;100307.56;4938050;28;45306;-37
2023/08/25 05:01:30;;;;;;;;;57.00;45.50;;;;;26.80;57.52;100304.75;4938107;28;45588;-37
2023/08/25 05:03:55;;;;;;;;;55.25;44.25;;;;;26.80;57.22;100304.75;4937971;28;46367;-39
2023/08/25 05:06:21;;;;;;;;;45.25;36.00;;;;;26.80;56.94;100300.28;4937857;28;45778;-37
2023/08/25 05:08:47;;;;;;;;;42.75;35.25;;;;;26.80;57.23;100297.63;4938030;28;45684;-37
2023/08/25 05:11:13;;;;;;;;;38.00;32.50;;;;;26.80;57.27;100300.28;4938064;28;45342;-37
2023/08/25 05:13:39;;;;;;;;;28.25;25.00;;;;;26.78;57.39;100298.75;4937760;28;46211;-38
2023/08/25 05:16:04;;;;;;;;;27.25;24.75;;;;;26.73;57.04;100288.50;4936549;28;45389;-40
2023/08/25 05:18:31;;;;;;;;;29.25;26.75;;;;;26.70;57.01;100300.25;4937952;28;45393;-37
2023/08/25 05:20:58;;;;;;;;;27.75;26.50;;;;;26.68;57.17;100302.19;4938429;28;45484;-41
2023/08/25 05:23:24;;;;;;;;;24.50;24.50;;;;;26.65;57.27;100314.94;4941033;28;46363;-41
2023/08/25 05:25:49;;;;;;;;;32.33;28.33;;;;;26.61;57.19;100321.53;4940420;28;63032;-37
2023/08/25 05:28:14;;;;;;;;;33.50;29.00;;;;;26.58;57.75;100324.44;4941142;28;45284;-40
2023/08/25 05:30:40;;;;;;;;;29.50;26.25;;;;;26.54;57.61;100318.56;4941496;28;45581;-38
2023/08/25 05:33:05;;;;;;;;;30.00;26.75;;;;;26.51;57.63;100317.00;4940276;28;58961;-38
2023/08/25 05:35:30;;;;;;;;;28.25;25.75;;;;;26.50;57.52;100325.13;4940461;28;56412;-37
2023/08/25 05:37:55;;;;;;;;;36.67;31.33;;;;;26.48;57.79;100335.91;4940604;28;51674;-38
2023/08/25 05:40:22;;;;;;;;;27.75;25.25;;;;;26.46;57.62;100351.13;4940838;28;45415;-39
2023/08/25 05:42:47;;;;;;;;;30.50;24.75;;;;;26.45;57.68;100353.94;4940717;28;46339;-41
2023/08/25 05:45:12;;;;;;;;;32.50;29.50;;;;;26.44;58.10;100355.75;4941072;28;45366;-36
2023/08/25 05:47:38;;;;;;;;;34.25;28.75;;;;;26.42;58.04;100360.34;4940496;28;51238;-39
2023/08/25 05:50:03;;;;;;;;;34.33;29.33;;;;;26.42;58.16;100364.81;4940559;28;51885;-38
2023/08/25 05:52:29;;;;;;;;;35.75;30.00;;;;;26.41;58.20;100371.94;4940607;28;45468;-37
2023/08/25 05:54:54;;;;;;;;;38.75;30.25;;;;;26.39;58.43;100368.59;4940333;28;45645;-38
2023/08/25 05:57:19;;;;;;;;;38.00;33.00;;;;;26.40;58.47;100370.28;4940453;28;49212;-39
2023/08/25 05:59:45;;;;;;;;;31.25;30.00;;;;;26.37;58.45;100367.91;4940352;28;51287;-36
2023/08/25 06:02:10;;;;;;;;;42.00;32.00;;;;;26.35;58.58;100367.19;4940204;28;62658;-39
2023/08/25 06:04:35;;;;;;;;;37.00;31.33;;;;;26.34;58.41;100352.22;4939947;28;59836;-39
2023/08/25 06:07:01;;;;;;;;;45.00;33.25;;;;;26.31;58.58;100336.53;4940463;28;45298;-38
2023/08/25 06:09:26;;;;;;;;;35.25;31.25;;;;;26.29;58.39;100330.53;4940084;28;47631;-38
2023/08/25 06:11:53;;;;;;;;;37.75;30.25;;;;;26.26;58.13;100328.97;4940311;28;45484;-39
2023/08/25 06:14:18;;;;;;;;;34.25;30.75;;;;;26.24;58.28;100336.22;4940375;28;45737;-39
2023/08/25 06:16:44;;;;;;;;;40.75;31.50;;;;;26.21;58.26;100336.53;4940776;28;45350;-37
2023/08/25 06:19:09;;;;;;;;;31.50;28.25;;;;;26.19;58.30;100333.97;4940420;28;45343;-37
2023/08/25 06:21:35;;;;;;;;;35.75;30.00;;;;;26.16;57.88;100338.72;4940171;28;46237;-38
2023/08/25 06:24:00;;;;;;;;;35.25;29.25;;;;;26.13;58.22;100339.03;4940029;28;45252;-37
2023/08/25 06:26:25;;;;;;;;;33.75;31.00;;;;;26.10;57.97;100339.28;4940184;28;45295;-40
2023/08/25 06:28:56;;;;;;;;;34.25;29.25;;;;;26.09;57.99;100349.00;4940574;28;45373;-36
2023/08/25 06:31:22;;;;;;;;;26.50;23.25;;;;;26.07;57.78;100358.94;4939824;28;47153;-36
2023/08/25 06:33:47;;;;;;;;;33.00;26.75;;;;;26.05;58.10;100363.53;4954536;28;45259;-39
2023/08/25 06:36:12;;;;;;;;;33.00;28.00;;;;;26.06;57.97;100370.53;4939975;28;55634;-38
2023/08/25 06:38:37;;;;;;;;;29.75;28.00;;;;;26.05;57.83;100374.16;4940244;28;45243;-38
2023/08/25 06:41:03;;;;;;;;;34.00;29.25;;;;;26.04;58.06;100372.47;4939893;28;45251;-39
2023/08/25 06:43:29;;;;;;;;;36.50;30.00;;;;;26.02;58.18;100372.59;4939900;28;45418;-38
2023/08/25 06:45:54;;;;;;;;;32.75;28.25;;;;;25.99;58.00;100372.88;4939887;28;45302;-38
2023/08/25 06:48:19;;;;;;;;;39.50;29.75;;;;;25.98;58.09;100370.34;4940074;28;45310;-38
2023/08/25 06:50:45;;;;;;;;;31.75;27.25;;;;;25.95;57.99;100360.84;4939419;28;62385;-41
2023/08/25 06:53:10;;;;;;;;;30.50;23.00;;;;;25.94;58.38;100364.47;4939313;28;52017;-41
2023/08/25 06:55:35;;;;;;;;;26.50;25.75;;;;;25.94;58.10;100353.84;4939785;28;45407;-39
2023/08/25 06:58:01;;;;;;;;;33.00;26.00;;;;;25.92;58.29;100348.69;4939879;28;45303;-38
2023/08/25 07:00:26;;;;;;;;;28.50;24.25;;;;;25.93;58.16;100350.34;4954539;28;45356;-39
2023/08/25 07:02:52;;;;;;;;;28.25;25.25;;;;;25.91;58.20;100343.47;4939538;28;45264;-40
2023/08/25 07:05:20;;;;;;;;;25.25;20.75;;;;;25.90;58.21;100347.97;4946233;28;45460;-36
2023/08/25 07:07:46;;;;;;;;;17.00;14.50;;;;;25.90;58.43;100357.75;4930845;28;45339;-40
2023/08/25 07:10:13;;;;;;;;;26.25;20.75;;;;;25.88;58.21;100363.19;4949407;28;45421;-40
2023/08/25 07:12:39;;;;;;;;;19.25;18.75;;;;;25.84;57.91;100361.78;4948117;28;45869;-39
2023/08/25 07:15:07;;;;;;;;;24.00;18.75;;;;;25.82;58.13;100358.41;4947796;28;45419;-47
2023/08/25 07:17:32;;;;;;;;;20.50;16.50;;;;;25.80;58.22;100344.41;4949701;28;45510;-44
2023/08/25 07:19:57;;;;;;;;;20.75;19.00;;;;;25.78;58.11;100351.66;4947934;28;46437;-41
2023/08/25 07:22:23;;;;;;;;;22.75;19.25;;;;;25.77;58.35;100350.84;4948911;28;50287;-43
2023/08/25 07:24:50;;;;;;;;;21.25;20.25;;;;;25.78;58.07;100354.31;4947627;28;45413;-43
2023/08/25 07:27:15;;;;;;;;;21.75;20.00;;;;;25.76;58.09;100361.56;4932048;28;45442;-40
2023/08/25 07:29:41;;;;;;;;;20.50;16.75;;;;;25.72;58.09;100360.16;4943935;28;45501;-43
2023/08/25 07:32:06;;;;;;;;;21.00;16.50;;;;;25.71;57.85;100366.44;4939138;28;45439;-47
2023/08/25 07:34:31;;;;;;;;;15.25;13.25;;;;;25.68;57.94;100358.72;4939182;28;45307;-49
2023/08/25 07:36:57;;;;;;;;;15.75;14.25;;;;;25.68;58.44;100366.69;4938865;28;48527;-47
2023/08/25 07:39:22;;;;;;;;;16.00;14.00;;;;;25.69;57.97;100363.91;4939005;28;46509;-43
2023/08/25 07:41:47;;;;;;;;;12.50;11.00;;;;;25.69;57.62;100371.03;4939151;28;48257;-49
2023/08/25 07:44:13;;;;;;;;;16.75;13.50;;;;;25.68;57.84;100374.66;4937976;28;47247;-47
2023/08/25 07:46:39;;;;;;;;;15.50;13.25;;;;;25.70;57.68;100380.69;4939271;28;45289;-48
2023/08/25 07:49:08;;;;;;;;;16.75;14.75;;;;;25.67;57.54;100370.31;4938788;28;46515;-47
2023/08/25 07:51:34;;;;;;;;;14.00;12.50;;;;;25.63;57.71;100386.50;4938930;28;45346;-50
2023/08/25 07:54:00;;;;;;;;;10.25;10.25;;;;;25.60;57.97;100392.09;4938977;28;45314;-49
2023/08/25 07:56:25;;;;;;;;;12.25;12.00;;;;;25.59;57.67;100395.69;4938989;28;45540;-38
2023/08/25 07:58:50;;;;;;;;;12.75;12.25;;;;;25.58;57.93;100401.13;4939144;28;46381;-39
2023/08/25 08:01:16;;;;;;;;;12.50;11.00;;;;;25.57;57.57;100407.44;4938710;28;45490;-39
2023/08/25 08:03:41;;;;;;;;;12.25;12.00;;;;;25.53;57.90;100404.16;4938914;28;45459;-38
2023/08/25 08:06:06;;;;;;;;;13.00;12.25;;;;;25.53;57.73;100401.50;4938746;28;45565;-38
2023/08/25 08:08:32;;;;;;;;;12.75;12.25;;;;;25.52;57.76;100407.78;4937415;28;46239;-36
2023/08/25 08:10:57;;;;;;;;;12.50;12.00;;;;;25.51;57.91;100406.13;4938789;28;45409;-43
2023/08/25 08:13:23;;;;;;;;;11.50;10.50;;;;;25.50;57.91;100409.75;4938561;28;45244;-40
2023/08/25 08:15:48;;;;;;;;;15.50;11.00;;;;;25.48;57.70;100409.03;4939169;28;45577;-43
2023/08/25 08:18:14;;;;;;;;;10.75;9.75;;;;;25.48;57.82;100411.69;4938357;28;45347;-37
2023/08/25 08:20:39;;;;;;;;;10.00;7.25;;;;;25.50;57.59;100417.72;4939518;28;45291;-40
2023/08/25 08:23:05;;;;;;;;;14.75;11.00;;;;;25.51;57.49;100422.03;4948542;28;45286;-39
2023/08/25 08:25:30;;;;;;;;;12.75;8.00;;;;;25.52;57.43;100423.69;4952859;28;45364;-37
2023/08/25 08:27:56;;;;;;;;;10.50;9.00;;;;;25.58;57.40;100431.16;4957644;28;47097;-40
2023/08/25 08:30:21;;;;;;;;;9.75;8.00;;;;;25.62;57.42;100440.56;4957553;28;45477;-38
2023/08/25 08:32:47;;;;;;;;;9.25;9.25;;;;;25.65;57.90;100446.56;4945821;28;45466;-38
2023/08/25 19:03:16;;;;;;;;;0.50;0.00;;;;;25.39;41.44;100689.16;5428788;23;46283;-45
2023/08/25 19:05:41;;;;;;;;;1.00;1.00;;;;;25.39;41.47;100696.28;4934228;28;45657;-38
2023/08/25 19:08:07;;;;;;;;;1.00;1.00;;;;;25.38;41.10;100700.72;4921673;28;45746;-40
2023/08/25 19:10:32;;;;;;;;;1.75;1.00;;;;;25.38;41.07;100703.38;4938928;28;53766;-47
2023/08/25 19:12:59;;;;;;;;;1.25;1.25;;;;;25.37;41.17;100712.31;4938789;28;47509;-39
2023/08/25 19:15:25;;;;;;;;;2.50;1.00;;;;;25.37;40.51;100708.81;4921846;28;45303;-40
2023/08/25 19:17:50;;;;;;;;;1.50;0.00;;;;;25.36;40.89;100709.78;4939560;28;45342;-39
2023/08/25 19:20:19;;;;;;;;;2.00;1.00;;;;;25.35;40.77;100710.75;4939083;28;45219;-38
2023/08/25 19:22:45;;;;;;;;;0.75;0.75;;;;;25.34;40.32;100724.97;4938866;28;46395;-39
2023/08/25 19:25:11;;;;;;;;;2.00;2.00;;;;;25.34;40.50;100731.13;4938754;28;45395;-39
2023/08/25 19:27:36;;;;;;;;;2.00;0.75;;;;;25.33;40.45;100726.78;4939046;28;45509;-38
2023/08/25 19:30:04;;;;;;;;;1.00;1.00;;;;;25.32;40.56;100731.22;4938836;28;45302;-38
2023/08/25 19:32:30;;;;;;;;;1.00;1.00;;;;;25.32;40.70;100731.22;4938678;28;45354;-39
2023/08/25 19:34:55;;;;;;;;;2.50;0.00;;;;;25.31;40.73;100737.50;4938429;28;45263;-39
2023/08/25 19:37:21;;;;;;;;;1.75;1.75;;;;;25.30;40.19;100735.81;4939046;28;45200;-39
2023/08/25 19:39:46;;;;;;;;;0.00;0.00;;;;;25.29;40.30;100747.41;4937669;28;45220;-40
2023/08/25 19:42:11;;;;;;;;;0.00;0.00;;;;;25.27;40.40;100754.63;4921188;28;46388;-37
2023/08/25 19:44:36;;;;;;;;;4.00;1.00;;;;;25.27;40.16;100756.44;4938624;28;45318;-40
2023/08/25 19:47:02;;;;;;;;;0.00;0.00;;;;;25.27;39.79;100765.25;4937705;28;62847;-39
2023/08/25 19:49:27;;;;;;;;;1.00;0.75;;;;;25.24;40.22;100760.16;4938909;28;45326;-40
2023/08/25 19:51:53;;;;;;;;;1.75;1.00;;;;;25.26;40.33;100766.19;4938106;28;65418;-39
2023/08/25 19:54:18;;;;;;;;;1.75;1.00;;;;;25.24;39.85;100762.81;4938093;28;45283;-39
2023/08/25 19:56:43;;;;;;;;;0.00;0.00;;;;;25.26;39.90;100776.81;4938596;28;45399;-40
2023/08/25 19:59:10;;;;;;;;;1.00;1.00;;;;;25.24;39.85;100770.78;4938759;28;45642;-39
2023/08/25 20:01:35;;;;;;;;;1.00;1.00;;;;;25.24;39.42;100767.28;4938307;28;46096;-40
2023/08/25 20:04:02;;;;;;;;;1.00;1.00;;;;;25.23;39.95;100769.09;4937819;28;45395;-39
2023/08/25 20:06:28;;;;;;;;;3.00;1.00;;;;;25.23;39.30;100766.44;4938453;28;45351;-41
2023/08/25 20:08:53;;;;;;;;;0.50;0.50;;;;;25.22;39.13;100770.03;4938924;28;45386;-40
2023/08/25 20:11:19;;;;;;;;;1.00;1.00;;;;;25.22;39.46;100769.22;4920500;28;56696;-39
2023/08/25 20:13:45;;;;;;;;;1.25;1.00;;;;;25.22;39.45;100767.38;4938101;28;45205;-37
2023/08/25 20:16:10;;;;;;;;;2.00;1.00;;;;;25.21;39.56;100760.38;4938104;28;45219;-40
2023/08/25 20:18:35;;;;;;;;;1.75;0.75;;;;;25.20;39.33;100760.53;4938063;28;46177;-39
2023/08/25 20:21:01;;;;;;;;;0.25;0.25;;;;;25.18;39.27;100755.34;4937821;28;46052;-38
2023/08/25 20:23:27;;;;;;;;;0.75;0.75;;;;;25.19;39.08;100753.53;4938256;28;45302;-39
2023/08/25 20:25:53;;;;;;;;;1.00;1.00;;;;;25.19;39.31;100758.81;4938635;28;45434;-39
2023/08/25 20:28:19;;;;;;;;;1.00;0.75;;;;;25.18;39.37;100752.69;4937426;28;45512;-40
2023/08/25 20:30:46;;;;;;;;;2.50;1.25;;;;;25.17;39.27;100761.59;4937874;28;46294;-39
2023/08/25 20:33:12;;;;;;;;;0.25;0.25;;;;;25.16;39.26;100759.91;4937740;28;45370;-40
2023/08/25 20:35:41;;;;;;;;;2.00;0.25;;;;;25.17;38.81;100756.31;4938085;28;45335;-41
2023/08/25 20:38:07;;;;;;;;;2.50;0.75;;;;;25.16;38.97;100754.63;4937945;28;45556;-41
2023/08/25 20:40:33;;;;;;;;;2.00;1.00;;;;;25.14;38.90;100753.88;4937794;28;46400;-40
2023/08/25 20:42:58;;;;;;;;;2.25;1.00;;;;;25.14;38.78;100754.72;4937517;28;45266;-38
2023/08/25 20:45:24;;;;;;;;;0.00;0.00;;;;;25.13;38.90;100754.84;4938298;28;45537;-38
2023/08/25 20:47:49;;;;;;;;;1.00;1.00;;;;;25.11;38.87;100762.06;4938654;28;45528;-42
2023/08/25 20:50:14;;;;;;;;;0.50;0.50;;;;;25.12;38.67;100755.78;4937864;28;53425;-40
2023/08/25 20:52:40;;;;;;;;;1.00;1.00;;;;;25.11;39.41;100754.97;4937330;28;59461;-44
2023/08/25 20:55:07;;;;;;;;;0.00;0.00;;;;;25.09;39.26;100753.38;4938205;28;45367;-40
2023/08/25 20:57:33;;;;;;;;;1.25;0.75;;;;;25.08;38.93;100752.53;4921606;28;45440;-45
2023/08/25 20:59:59;;;;;;;;;1.00;1.00;;;;;25.08;39.55;100754.38;4938054;28;45357;-43
2023/08/25 21:02:24;;;;;;;;;2.00;1.00;;;;;25.08;39.77;100760.50;4937881;28;45368;-44
2023/08/25 21:04:49;;;;;;;;;1.00;1.00;;;;;25.06;39.33;100759.75;4936595;28;45258;-39
2023/08/25 21:07:16;;;;;;;;;1.00;1.00;;;;;25.05;39.27;100757.25;4936509;28;54666;-45
2023/08/25 21:09:41;;;;;;;;;1.00;1.00;;;;;25.04;38.93;100756.38;4936598;28;46372;-46
2023/08/25 21:12:07;;;;;;;;;1.50;1.50;;;;;25.03;39.07;100759.16;4936648;28;45380;-49
2023/08/25 21:14:32;;;;;;;;;1.75;1.00;;;;;25.00;39.59;100750.47;4936511;28;45357;-43
2023/08/25 21:16:58;;;;;;;;;1.00;1.00;;;;;25.00;39.30;100750.47;4936356;28;55092;-40
2023/08/25 21:19:23;;;;;;;;;1.00;1.00;;;;;25.00;39.66;100761.06;4936822;28;46959;-42
2023/08/25 21:21:48;;;;;;;;;2.50;1.00;;;;;24.99;39.66;100759.38;4918830;28;58633;-49
2023/08/25 21:24:13;;;;;;;;;1.75;1.00;;;;;24.99;39.91;100753.25;4935948;28;62058;-44
2023/08/25 21:26:39;;;;;;;;;1.00;1.00;;;;;24.99;39.86;100763.84;4936849;28;45441;-48
2023/08/25 21:29:06;;;;;;;;;1.00;1.00;;;;;24.97;39.40;100755.16;4936350;28;46272;-46
2023/08/25 21:31:34;;;;;;;;;0.00;0.00;;;;;24.97;39.68;100760.47;4936567;28;45913;-47
2023/08/25 21:34:00;;;;;;;;;1.00;1.00;;;;;24.96;39.31;100767.59;4936356;28;45279;-40
2023/08/25 21:36:26;;;;;;;;;1.00;1.00;;;;;24.96;39.10;100770.25;4937030;28;45172;-41
2023/08/25 21:38:52;;;;;;;;;0.25;0.25;;;;;24.95;39.07;100765.91;4936320;28;45272;-41